createdAt,value
2022-08-17T00:02:26.341Z,98276.73
2022-08-17T00:05:41.271Z,98280.48
2022-08-17T00:09:01.292Z,98277.03
2022-08-17T00:12:42.984Z,98279.45
2022-08-17T00:15:38.656Z,98277.03
2022-08-17T00:19:05.744Z,98278.92
2022-08-17T00:22:30.964Z,98275.92
2022-08-17T00:25:31.918Z,98264.56
2022-08-17T00:28:48.928Z,98263.77
2022-08-17T00:33:15.411Z,98268.31
2022-08-17T00:35:30.653Z,98273.13
2022-08-17T00:38:47.037Z,98271.00
2022-08-17T00:42:03.846Z,98275.06
2022-08-17T00:45:24.762Z,98278.31
2022-08-17T00:48:41.982Z,98275.63
2022-08-17T00:52:04.694Z,98278.58
2022-08-17T00:55:23.065Z,98273.20
2022-08-17T00:58:41.573Z,98283.17
2022-08-17T01:01:58.566Z,98283.47
2022-08-17T01:05:18.942Z,98285.67
2022-08-17T01:08:39.241Z,98293.74
2022-08-17T01:11:56.205Z,98280.78
2022-08-17T01:15:14.642Z,98279.12
2022-08-17T01:18:32.005Z,98274.27
2022-08-17T01:21:52.735Z,98264.25
2022-08-17T01:25:13.459Z,98265.58
2022-08-17T01:28:40.711Z,98267.70
2022-08-17T01:31:55.217Z,98268.77
2022-08-17T01:35:13.591Z,98269.91
2022-08-17T01:38:31.514Z,98267.25
2022-08-17T01:41:48.950Z,98281.27
2022-08-17T01:45:10.775Z,98277.72
2022-08-17T01:48:28.213Z,98280.59
2022-08-17T01:51:45.135Z,98273.58
2022-08-17T01:55:02.446Z,98272.25
2022-08-17T01:58:18.897Z,98268.73
2022-08-17T02:01:38.820Z,98268.95
2022-08-17T02:04:55.201Z,98272.70
2022-08-17T02:11:19.127Z,98291.80
2022-08-17T02:14:36.446Z,98298.97
2022-08-17T02:17:54.876Z,98291.91
2022-08-17T02:21:11.087Z,98299.44
2022-08-17T02:24:59.636Z,98293.49
2022-08-17T02:27:52.136Z,98300.45
2022-08-17T02:31:14.215Z,98302.47
2022-08-17T02:34:30.789Z,98305.66
2022-08-17T02:37:51.771Z,98304.84
2022-08-17T02:41:05.828Z,98308.86
2022-08-17T02:44:39.103Z,98300.73
2022-08-17T02:47:43.238Z,98308.48
2022-08-17T02:50:57.389Z,98303.91
2022-08-17T02:54:41.680Z,98303.38
2022-08-17T02:57:32.031Z,98295.84
2022-08-17T03:00:52.548Z,98307.43
2022-08-17T03:04:08.981Z,98292.09
2022-08-17T03:07:25.165Z,98298.59
2022-08-17T03:10:41.666Z,98296.22
2022-08-17T03:13:58.304Z,98288.45
2022-08-17T03:17:17.356Z,98300.84
2022-08-17T03:20:37.135Z,98297.59
2022-08-17T03:23:54.519Z,98301.10
2022-08-17T03:27:11.597Z,98301.91
2022-08-17T03:30:28.430Z,98295.72
2022-08-17T03:33:47.358Z,98301.91
2022-08-17T03:37:02.834Z,98295.72
2022-08-17T03:40:34.514Z,98293.34
2022-08-17T03:43:41.558Z,98299.27
2022-08-17T03:47:11.727Z,98310.02
2022-08-17T03:50:42.898Z,98309.53
2022-08-17T03:54:17.131Z,98305.52
2022-08-17T03:57:33.968Z,98314.39
2022-08-17T04:00:50.145Z,98315.77
2022-08-17T04:04:06.552Z,98311.52
2022-08-17T04:07:22.733Z,98322.33
2022-08-17T04:10:41.353Z,98329.66
2022-08-17T04:13:57.666Z,98339.13
2022-08-17T04:17:14.084Z,98335.34
2022-08-17T04:20:33.005Z,98336.97
2022-08-17T04:23:49.196Z,98333.53
2022-08-17T04:27:06.965Z,98332.77
2022-08-17T04:30:23.894Z,98331.45
2022-08-17T04:33:40.947Z,98330.93
2022-08-17T04:36:58.091Z,98333.93
2022-08-17T04:40:31.063Z,98338.55
2022-08-17T04:43:50.277Z,98338.59
2022-08-17T04:47:08.073Z,98338.91
2022-08-17T04:50:26.115Z,98346.22
2022-08-17T04:53:44.962Z,98343.83
2022-08-17T04:57:01.462Z,98353.28
2022-08-17T05:00:23.164Z,98346.56
2022-08-17T05:03:39.863Z,98354.42
2022-08-17T05:06:59.979Z,98354.19
2022-08-17T05:10:19.550Z,98358.02
2022-08-17T05:13:37.731Z,98361.81
2022-08-17T05:16:53.925Z,98374.81
2022-08-17T05:20:16.732Z,98366.77
2022-08-17T05:23:42.564Z,98377.34
2022-08-17T05:26:53.112Z,98365.23
2022-08-17T05:30:12.293Z,98363.67
2022-08-17T05:33:31.259Z,98374.77
2022-08-17T05:36:45.773Z,98373.73
2022-08-17T05:40:03.509Z,98378.35
2022-08-17T05:43:24.843Z,98376.78
2022-08-17T05:46:45.877Z,98383.29
2022-08-17T05:50:03.560Z,98380.67
2022-08-17T05:53:28.190Z,98384.19
2022-08-17T05:56:58.677Z,98386.64
2022-08-17T06:00:30.390Z,98392.39
2022-08-17T06:03:52.020Z,98389.48
2022-08-17T06:07:14.442Z,98394.38
2022-08-17T06:10:36.886Z,98393.33
2022-08-17T06:14:22.110Z,98393.36
2022-08-17T06:17:39.949Z,98397.47
2022-08-17T06:21:00.601Z,98401.00
2022-08-17T06:24:34.575Z,98392.92
2022-08-17T06:27:54.796Z,98395.61
2022-08-17T06:31:20.903Z,98390.22
2022-08-17T06:34:38.312Z,98389.67
2022-08-17T06:38:13.079Z,98405.85
2022-08-17T06:41:37.892Z,98402.88
2022-08-17T06:45:02.495Z,98403.65
2022-08-17T06:48:25.511Z,98397.38
2022-08-17T06:51:47.029Z,98404.36
2022-08-17T06:55:18.150Z,98408.61
2022-08-17T06:58:34.164Z,98413.41
2022-08-17T07:01:53.161Z,98411.64
2022-08-17T07:05:11.312Z,98420.73
2022-08-17T07:08:35.368Z,98422.50
2022-08-17T07:11:58.156Z,98424.27
2022-08-17T07:15:21.981Z,98424.70
2022-08-17T07:18:41.413Z,98432.67
2022-08-17T07:22:03.319Z,98433.33
2022-08-17T07:25:23.243Z,98429.02
2022-08-17T07:28:41.325Z,98433.46
2022-08-17T07:31:59.178Z,98431.83
2022-08-17T07:35:31.113Z,98427.18
2022-08-17T07:38:47.698Z,98433.80
2022-08-17T07:42:12.610Z,98436.91
2022-08-17T07:45:43.442Z,98440.24
2022-08-17T07:49:04.426Z,98441.10
2022-08-17T07:52:50.357Z,98436.58
2022-08-17T07:55:53.023Z,98430.59
2022-08-17T07:59:23.693Z,98436.47
2022-08-17T08:02:44.386Z,98439.98
2022-08-17T08:06:07.023Z,98436.30
2022-08-17T08:09:40.236Z,98436.31
2022-08-17T08:13:01.189Z,98433.22
2022-08-17T08:16:36.266Z,98440.56
2022-08-17T08:19:52.634Z,98447.00
2022-08-17T08:23:16.515Z,98446.56
2022-08-17T08:26:37.503Z,98446.84
2022-08-17T08:29:59.810Z,98443.09
2022-08-17T08:33:45.802Z,98444.25
2022-08-17T08:37:16.479Z,98449.64
2022-08-17T08:40:51.982Z,98440.89
2022-08-17T08:44:20.125Z,98435.30
2022-08-17T08:47:49.295Z,98439.20
2022-08-17T08:51:10.568Z,98445.88
2022-08-17T08:54:37.644Z,98442.16
2022-08-17T08:58:00.325Z,98437.15
2022-08-17T09:01:22.076Z,98433.55
2022-08-17T09:05:13.405Z,98428.96
2022-08-17T09:08:18.265Z,98433.11
2022-08-17T09:12:02.623Z,98433.20
2022-08-17T09:15:12.328Z,98430.50
2022-08-17T09:19:00.007Z,98439.58
2022-08-17T09:21:55.222Z,98437.28
2022-08-17T09:25:18.697Z,98438.22
2022-08-17T09:28:40.467Z,98443.94
2022-08-17T09:32:02.566Z,98434.66
2022-08-17T09:35:36.588Z,98432.39
2022-08-17T09:38:50.992Z,98439.25
2022-08-17T09:42:12.688Z,98431.34
2022-08-17T09:45:43.735Z,98429.14
2022-08-17T09:49:06.849Z,98437.20
2022-08-17T09:52:28.191Z,98434.24
2022-08-17T09:55:54.262Z,98427.80
2022-08-17T09:59:38.294Z,98422.06
2022-08-17T10:03:35.237Z,98434.14
2022-08-17T10:07:00.987Z,98436.58
2022-08-17T10:10:25.853Z,98430.53
2022-08-17T10:13:52.899Z,98423.30
2022-08-17T10:17:15.409Z,98423.38
2022-08-17T10:20:37.656Z,98424.50
2022-08-17T10:24:14.471Z,98415.95
2022-08-17T10:27:38.083Z,98412.83
2022-08-17T10:31:23.323Z,98410.35
2022-08-17T10:34:41.669Z,98408.53
2022-08-17T10:38:28.061Z,98418.17
2022-08-17T10:41:50.376Z,98411.38
2022-08-17T10:45:11.574Z,98403.83
2022-08-17T10:48:44.136Z,98412.25
2022-08-17T10:52:03.627Z,98409.38
2022-08-17T10:55:27.653Z,98404.66
2022-08-17T10:58:54.729Z,98402.63
2022-08-17T11:02:35.536Z,98401.84
2022-08-17T11:06:16.227Z,98395.17
2022-08-17T11:09:45.627Z,98398.27
2022-08-17T11:13:07.981Z,98400.13
2022-08-17T11:16:52.814Z,98398.27
2022-08-17T11:20:54.525Z,98394.86
2022-08-17T11:24:31.451Z,98391.44
2022-08-17T11:27:50.472Z,98391.20
2022-08-17T11:31:12.059Z,98405.55
2022-08-17T11:34:34.226Z,98404.70
2022-08-17T11:38:01.563Z,98406.88
2022-08-17T11:41:31.687Z,98402.95
2022-08-17T11:44:58.458Z,98397.41
2022-08-17T11:48:34.965Z,98399.70
2022-08-17T11:52:45.974Z,98395.22
2022-08-17T11:56:19.290Z,98398.13
2022-08-17T12:00:06.167Z,98387.86
2022-08-17T12:03:58.618Z,98386.06
2022-08-17T12:07:21.361Z,98386.20
2022-08-17T12:10:41.907Z,98392.27
2022-08-17T12:14:02.461Z,98381.63
2022-08-17T12:17:41.472Z,98382.70
2022-08-17T12:20:45.645Z,98381.32
2022-08-17T12:24:08.902Z,98368.38
2022-08-17T12:28:04.263Z,98383.05
2022-08-17T12:31:04.244Z,98367.02
2022-08-17T12:34:28.582Z,98372.15
2022-08-17T12:37:51.041Z,98381.15
2022-08-17T12:41:12.526Z,98370.84
2022-08-17T12:44:33.836Z,98367.52
2022-08-17T12:47:50.227Z,98372.97
2022-08-17T12:51:12.304Z,98372.97
2022-08-17T12:54:44.059Z,98373.28
2022-08-17T12:58:02.874Z,98374.45
2022-08-17T13:01:24.161Z,98368.69
2022-08-17T13:04:41.590Z,98362.91
2022-08-17T13:08:02.130Z,98367.58
2022-08-17T13:11:25.794Z,98372.71
2022-08-17T13:14:42.228Z,98368.55
2022-08-17T13:18:16.335Z,98364.22
2022-08-17T13:21:37.311Z,98365.16
2022-08-17T13:25:04.968Z,98358.41
2022-08-17T13:28:36.390Z,98354.39
2022-08-17T13:31:56.568Z,98367.39
2022-08-17T13:35:39.863Z,98349.59
2022-08-17T13:38:58.311Z,98352.01
2022-08-17T13:42:31.138Z,98344.84
2022-08-17T13:45:56.123Z,98349.66
2022-08-17T13:49:16.766Z,98356.53
2022-08-17T13:52:52.001Z,98365.70
2022-08-17T13:56:37.760Z,98361.38
2022-08-17T13:59:54.688Z,98367.13
2022-08-17T14:03:03.212Z,98370.81
2022-08-17T14:06:52.504Z,98376.08
2022-08-17T14:09:41.783Z,98370.91
2022-08-17T14:12:58.071Z,98371.86
2022-08-17T14:16:16.738Z,98371.86
2022-08-17T14:19:34.302Z,98369.13
2022-08-17T14:22:58.843Z,98377.31
2022-08-17T14:26:16.611Z,98368.02
2022-08-17T14:29:36.801Z,98354.08
2022-08-17T14:32:54.748Z,98370.11
2022-08-17T14:36:11.678Z,98364.02
2022-08-17T14:39:31.718Z,98363.23
2022-08-17T14:42:51.723Z,98360.32
2022-08-17T14:46:07.942Z,98355.50
2022-08-17T14:49:24.706Z,98360.13
2022-08-17T14:52:41.516Z,98365.58
2022-08-17T14:55:59.516Z,98366.53
2022-08-17T14:59:17.792Z,98362.00
2022-08-17T15:02:38.287Z,98357.47
2022-08-17T15:05:55.008Z,98358.70
2022-08-17T15:09:17.627Z,98357.22
2022-08-17T15:12:36.589Z,98362.98
2022-08-17T15:15:53.054Z,98358.45
2022-08-17T15:19:09.357Z,98358.22
2022-08-17T15:22:33.363Z,98362.05
2022-08-17T15:25:51.236Z,98359.55
2022-08-17T15:29:07.418Z,98353.31
2022-08-17T15:32:36.229Z,98364.78
2022-08-17T15:35:54.433Z,98362.17
2022-08-17T15:39:11.113Z,98366.64
2022-08-17T15:42:28.410Z,98368.84
2022-08-17T15:45:45.021Z,98359.69
2022-08-17T15:49:03.264Z,98358.39
2022-08-17T15:52:28.206Z,98354.55
2022-08-17T15:55:45.389Z,98359.88
2022-08-17T15:59:02.034Z,98380.45
2022-08-17T16:03:44.223Z,98385.08
2022-08-17T16:05:46.238Z,98402.39
2022-08-17T16:09:03.391Z,98393.84
2022-08-17T16:12:23.279Z,98402.38
2022-08-17T16:15:39.704Z,98406.51
2022-08-17T16:18:58.656Z,98402.64
2022-08-17T16:22:16.345Z,98397.70
2022-08-17T16:25:52.366Z,98400.83
2022-08-17T16:28:54.974Z,98401.19
2022-08-17T16:32:18.474Z,98410.81
2022-08-17T16:35:35.428Z,98413.31
2022-08-17T16:38:52.078Z,98423.40
2022-08-17T16:42:09.995Z,98413.31
2022-08-17T16:45:29.680Z,98419.86
2022-08-17T16:48:47.349Z,98420.55
2022-08-17T16:52:10.999Z,98423.05
2022-08-17T16:55:30.070Z,98417.31
2022-08-17T16:58:46.747Z,98415.39
2022-08-17T17:02:05.229Z,98424.67
2022-08-17T17:05:28.742Z,98420.33
2022-08-17T17:08:49.193Z,98423.33
2022-08-17T17:12:09.450Z,98436.92
2022-08-17T17:15:26.323Z,98429.59
2022-08-17T17:18:48.510Z,98435.33
2022-08-17T17:22:10.553Z,98425.91
2022-08-17T17:25:34.404Z,98425.64
2022-08-17T17:28:57.353Z,98433.27
2022-08-17T17:32:21.745Z,98437.16
2022-08-17T17:35:44.316Z,98446.72
2022-08-17T17:39:06.336Z,98441.58
2022-08-17T17:42:29.127Z,98449.22
2022-08-17T17:45:53.388Z,98443.55
2022-08-17T17:49:11.468Z,98455.03
2022-08-17T17:52:36.288Z,98453.70
2022-08-17T17:56:02.099Z,98457.30
2022-08-17T17:59:23.944Z,98449.48
2022-08-17T18:02:58.082Z,98458.42
2022-08-17T18:06:27.415Z,98455.31
2022-08-17T18:10:19.787Z,98456.34
2022-08-17T18:13:32.536Z,98457.61
2022-08-17T18:16:49.339Z,98469.70
2022-08-17T18:20:07.537Z,98458.47
2022-08-17T18:23:28.055Z,98459.97
2022-08-17T18:26:57.811Z,98459.53
2022-08-17T18:30:34.323Z,98471.04
2022-08-17T18:33:54.208Z,98463.75
2022-08-17T18:37:16.030Z,98459.50
2022-08-17T18:40:41.732Z,98458.49
2022-08-17T18:44:12.416Z,98462.06
2022-08-17T18:47:31.413Z,98465.92
2022-08-17T18:50:49.128Z,98455.15
2022-08-17T18:54:23.165Z,98455.97
2022-08-17T18:57:43.895Z,98463.59
2022-08-17T19:01:01.018Z,98460.12
2022-08-17T19:04:34.792Z,98456.86
2022-08-17T19:07:53.645Z,98467.16
2022-08-17T19:11:13.710Z,98466.92
2022-08-17T19:14:31.871Z,98469.92
2022-08-17T19:17:56.287Z,98465.34
2022-08-17T19:21:18.303Z,98463.19
2022-08-17T19:24:37.621Z,98458.07
2022-08-17T19:28:03.193Z,98468.32
2022-08-17T19:31:27.011Z,98466.17
2022-08-17T19:34:46.195Z,98476.72
2022-08-17T19:38:12.922Z,98474.82
2022-08-17T19:41:38.508Z,98473.48
2022-08-17T19:45:02.301Z,98484.82
2022-08-17T19:48:28.182Z,98481.31
2022-08-17T19:51:51.842Z,98486.17
2022-08-17T19:55:19.853Z,98488.60
2022-08-17T19:58:44.859Z,98489.41
2022-08-17T20:02:05.665Z,98495.08
2022-08-17T20:05:27.412Z,98494.28
2022-08-17T20:08:48.102Z,98493.45
2022-08-17T20:12:09.604Z,98487.21
2022-08-17T20:15:31.346Z,98487.76
2022-08-17T20:18:54.846Z,98490.98
2022-08-17T20:22:16.213Z,98492.60
2022-08-17T20:25:39.287Z,98500.70
2022-08-17T20:29:37.736Z,98498.20
2022-08-17T20:33:04.482Z,98502.24
2022-08-17T20:36:27.967Z,98497.39
2022-08-17T20:39:49.924Z,98500.36
2022-08-17T20:43:21.534Z,98501.16
2022-08-17T20:47:04.119Z,98508.70
2022-08-17T20:50:25.184Z,98508.15
2022-08-17T20:54:41.525Z,98504.89
2022-08-17T20:57:58.132Z,98496.51
2022-08-17T21:01:26.926Z,98499.48
2022-08-17T21:05:10.670Z,98491.36
2022-08-17T21:08:33.719Z,98489.19
2022-08-17T21:12:05.574Z,98495.70
2022-08-17T21:15:35.688Z,98484.36
2022-08-17T21:18:57.578Z,98489.50
2022-08-17T21:22:23.287Z,98497.59
2022-08-17T21:26:07.201Z,98495.16
2022-08-17T21:29:31.286Z,98500.84
2022-08-17T21:32:49.572Z,98507.29
2022-08-17T21:36:34.429Z,98511.84
2022-08-17T21:39:53.630Z,98501.56
2022-08-17T21:43:24.251Z,98498.03
2022-08-17T21:46:46.529Z,98489.92
2022-08-17T21:50:12.438Z,98495.02
2022-08-17T21:53:39.727Z,98491.23
2022-08-17T21:57:00.481Z,98488.28
2022-08-17T22:00:21.182Z,98488.25
2022-08-17T22:03:39.374Z,98474.46
2022-08-17T22:06:58.974Z,98472.33
2022-08-17T22:10:32.230Z,98474.46
2022-08-17T22:13:49.754Z,98474.44
2022-08-17T22:17:25.679Z,98479.84
2022-08-17T22:20:42.443Z,98465.44
2022-08-17T22:24:15.411Z,98467.81
2022-08-17T22:27:50.922Z,98470.48
2022-08-17T22:31:14.504Z,98461.63
2022-08-17T22:34:30.910Z,98459.64
2022-08-17T22:37:47.255Z,98452.03
2022-08-17T22:41:37.417Z,98451.49
2022-08-17T22:44:59.392Z,98466.77
2022-08-17T22:48:16.072Z,98466.81
2022-08-17T22:51:35.779Z,98464.11
2022-08-17T22:55:09.437Z,98463.55
2022-08-17T22:58:43.462Z,98468.60
2022-08-17T23:02:27.912Z,98465.11
2022-08-17T23:05:48.440Z,98456.45
2022-08-17T23:09:05.071Z,98457.75
2022-08-17T23:12:28.386Z,98452.78
2022-08-17T23:15:48.803Z,98455.97
2022-08-17T23:19:06.532Z,98466.75
2022-08-17T23:22:24.264Z,98470.01
2022-08-17T23:25:45.343Z,98470.84
2022-08-17T23:29:03.400Z,98469.94
2022-08-17T23:32:22.979Z,98477.48
2022-08-17T23:35:41.140Z,98480.41
2022-08-17T23:38:58.608Z,98471.22
2022-08-17T23:42:23.542Z,98478.81
2022-08-17T23:45:39.813Z,98483.02
2022-08-17T23:48:58.713Z,98476.52
2022-08-17T23:52:19.476Z,98481.08
2022-08-17T23:55:36.184Z,98483.23
2022-08-17T23:58:52.970Z,98484.86
